Time;durP1;ratioP1;P1;durP2;ratioP2;P2;SDS_P1;SDS_P2;PMS_P1;PMS_P2;Temp;Humidity;BMP_temperature;BMP_pressure;BME280_temperature;BME280_humidity;BME280_pressure;Samples;Min_cycle;Max_cycle;Signal;HPM_P1;HPM_P2
2021/09/27 00:00:04;;;;;;;24.58;12.07;;;;;;;;;;5077549;28;20032;-92
2021/09/27 00:02:30;;;;;;;20.27;11.75;;;;;;;;;;5076666;28;20150;-93
2021/09/27 00:04:56;;;;;;;24.02;12.30;;;;;;;;;;5076449;28;20025;-92
2021/09/27 00:07:22;;;;;;;21.10;12.43;;;;;;;;;;5077430;28;20248;-93
2021/09/27 00:09:48;;;;;;;31.35;12.52;;;;;;;;;;5076468;28;20024;-93
2021/09/27 00:12:14;;;;;;;21.50;11.60;;;;;;;;;;5077612;28;20323;-93
2021/09/27 00:14:41;;;;;;;23.30;12.18;;;;;;;;;;5077596;28;20033;-92
2021/09/27 00:17:07;;;;;;;19.77;11.68;;;;;;;;;;5077245;28;20024;-93
2021/09/27 00:19:35;;;;;;;20.58;11.93;;;;;;;;;;5076682;28;20111;-92
2021/09/27 00:22:01;;;;;;;28.05;12.45;;;;;;;;;;5076455;28;20074;-91
2021/09/27 00:24:28;;;;;;;25.63;11.60;;;;;;;;;;5077263;28;20087;-93
2021/09/27 00:26:54;;;;;;;19.75;11.18;;;;;;;;;;5077133;28;20025;-90
2021/09/27 00:29:20;;;;;;;13.43;11.13;;;;;;;;;;5077420;28;20067;-90
2021/09/27 00:31:46;;;;;;;18.50;11.52;;;;;;;;;;5077273;28;20044;-90
2021/09/27 00:34:12;;;;;;;25.50;12.43;;;;;;;;;;5077115;28;20020;-89
2021/09/27 00:36:38;;;;;;;20.75;12.52;;;;;;;;;;5077185;28;20056;-91
2021/09/27 00:39:05;;;;;;;22.77;11.98;;;;;;;;;;5076199;28;20025;-91
2021/09/27 00:41:31;;;;;;;20.00;12.02;;;;;;;;;;5076291;28;20024;-90
2021/09/27 00:43:57;;;;;;;18.80;11.93;;;;;;;;;;5077469;28;20021;-90
2021/09/27 00:46:25;;;;;;;21.00;12.10;;;;;;;;;;5076135;28;20028;-90
2021/09/27 00:48:52;;;;;;;21.73;12.98;;;;;;;;;;5076177;28;20036;-89
2021/09/27 00:51:21;;;;;;;22.23;12.07;;;;;;;;;;5077238;28;20033;-91
2021/09/27 00:53:52;;;;;;;25.55;12.50;;;;;;;;;;5077366;28;20078;-91
2021/09/27 00:56:21;;;;;;;25.02;12.48;;;;;;;;;;5076867;28;20053;-92
2021/09/27 00:58:48;;;;;;;21.88;12.00;;;;;;;;;;5077104;28;20111;-93
2021/09/27 01:01:15;;;;;;;20.13;12.38;;;;;;;;;;5077013;28;20066;-90
2021/09/27 01:03:41;;;;;;;25.80;12.50;;;;;;;;;;5079148;28;20403;-91
2021/09/27 01:06:21;;;;;;;15.95;12.43;;;;;;;;;;5080337;28;20029;-90
2021/09/27 01:09:04;;;;;;;19.88;12.32;;;;;;;;;;5080663;28;20047;-90
2021/09/27 01:11:40;;;;;;;24.52;12.75;;;;;;;;;;5080678;28;20051;-91
2021/09/27 01:14:10;;;;;;;22.08;12.73;;;;;;;;;;5079455;28;20031;-91
2021/09/27 01:16:50;;;;;;;24.55;12.77;;;;;;;;;;5080384;28;20031;-90
2021/09/27 01:19:19;;;;;;;27.80;12.93;;;;;;;;;;5079401;28;20082;-91
2021/09/27 01:22:01;;;;;;;26.13;12.95;;;;;;;;;;5080313;28;20020;-90
2021/09/27 01:24:27;;;;;;;;;;;;;;;;;;5079732;28;20647;-89
2021/09/27 01:27:05;;;;;;;19.38;11.60;;;;;;;;;;5080194;28;19908;-89
2021/09/27 01:29:48;;;;;;;19.92;12.23;;;;;;;;;;5080401;28;20112;-89
2021/09/27 01:32:27;;;;;;;17.05;12.25;;;;;;;;;;5080089;28;20066;-89
2021/09/27 01:35:02;;;;;;;21.88;10.73;;;;;;;;;;5080165;28;20059;-90
2021/09/27 01:37:32;;;;;;;13.57;11.00;;;;;;;;;;5080113;28;20036;-89
2021/09/27 01:40:13;;;;;;;15.82;10.43;;;;;;;;;;5079928;28;20105;-91
2021/09/27 01:42:52;;;;;;;15.60;9.93;;;;;;;;;;5078966;28;20024;-89
2021/09/27 01:45:24;;;;;;;12.75;10.20;;;;;;;;;;5079120;28;20024;-90
2021/09/27 01:48:03;;;;;;;12.95;9.60;;;;;;;;;;5079324;28;20029;-90
2021/09/27 01:50:37;;;;;;;16.45;9.85;;;;;;;;;;5081800;28;20020;-89
2021/09/27 01:53:08;;;;;;;17.25;10.30;;;;;;;;;;5078865;28;20035;-91
2021/09/27 01:55:40;;;;;;;14.13;9.40;;;;;;;;;;5078499;28;20051;-91
2021/09/27 01:58:09;;;;;;;16.95;9.57;;;;;;;;;;5079493;28;20049;-91
2021/09/27 02:00:41;;;;;;;14.32;9.77;;;;;;;;;;5078589;28;20033;-91
2021/09/27 02:03:27;;;;;;;14.07;9.25;;;;;;;;;;5079791;28;20020;-90
2021/09/27 02:06:14;;;;;;;16.30;9.18;;;;;;;;;;5078686;28;20062;-89
2021/09/27 02:09:00;;;;;;;11.57;8.80;;;;;;;;;;5079399;28;20020;-89
2021/09/27 02:11:31;;;;;;;16.08;9.18;;;;;;;;;;5078400;28;20059;-88
2021/09/27 02:14:03;;;;;;;15.38;8.80;;;;;;;;;;5079400;28;20025;-89
2021/09/27 02:16:32;;;;;;;15.60;8.75;;;;;;;;;;5079172;28;20311;-93
2021/09/27 02:19:07;;;;;;;14.20;8.43;;;;;;;;;;5078426;28;20017;-92
2021/09/27 02:21:37;;;;;;;13.70;8.35;;;;;;;;;;5078979;28;20428;-94
2021/09/27 02:24:08;;;;;;;16.63;9.13;;;;;;;;;;5079178;28;20371;-95
2021/09/27 02:26:34;;;;;;;19.48;8.50;;;;;;;;;;5078944;28;20056;-93
2021/09/27 02:29:00;;;;;;;14.52;8.57;;;;;;;;;;5077937;28;20115;-94
2021/09/27 02:31:26;;;;;;;16.02;8.50;;;;;;;;;;5078790;28;20052;-95
2021/09/27 02:33:57;;;;;;;17.30;8.25;;;;;;;;;;5078832;28;20059;-95
2021/09/27 02:36:23;;;;;;;12.85;8.48;;;;;;;;;;5078941;28;20033;-94
2021/09/27 02:38:52;;;;;;;15.43;8.80;;;;;;;;;;5079009;28;20028;-90
2021/09/27 02:41:24;;;;;;;15.32;8.80;;;;;;;;;;5078952;28;20024;-93
2021/09/27 02:43:50;;;;;;;17.27;9.13;;;;;;;;;;5078675;28;20099;-93
2021/09/27 02:46:18;;;;;;;14.77;9.50;;;;;;;;;;5078746;28;20111;-94
2021/09/27 02:48:55;;;;;;;13.65;8.50;;;;;;;;;;5078813;28;20025;-94
2021/09/27 02:51:21;;;;;;;16.08;8.25;;;;;;;;;;5078834;28;20020;-94
2021/09/27 02:53:47;;;;;;;12.30;8.73;;;;;;;;;;5077373;28;20067;-92
2021/09/27 02:56:23;;;;;;;13.25;9.02;;;;;;;;;;5078150;28;20044;-93
2021/09/27 02:59:11;;;;;;;14.73;8.13;;;;;;;;;;5077637;28;20024;-94
2021/09/27 03:01:56;;;;;;;13.60;8.52;;;;;;;;;;5077628;28;20130;-89
2021/09/27 03:04:26;;;;;;;10.88;8.48;;;;;;;;;;5077167;28;20288;-96
2021/09/27 03:06:52;;;;;;;10.13;8.30;;;;;;;;;;5078323;28;20116;-95
2021/09/27 03:09:34;;;;;;;12.57;7.97;;;;;;;;;;5077398;28;20060;-94
2021/09/27 03:12:09;;;;;;;14.50;8.43;;;;;;;;;;5078262;28;20025;-94
2021/09/27 03:14:41;;;;;;;15.60;8.82;;;;;;;;;;5078366;28;20066;-94
2021/09/27 03:17:10;;;;;;;12.65;7.82;;;;;;;;;;5077018;28;20074;-94
2021/09/27 03:19:55;;;;;;;11.50;7.85;;;;;;;;;;5077979;28;20430;-95
2021/09/27 03:22:24;;;;;;;12.65;7.95;;;;;;;;;;5077363;28;20111;-94
2021/09/27 03:25:03;;;;;;;11.40;7.55;;;;;;;;;;5076875;28;20032;-94
2021/09/27 03:27:48;;;;;;;11.80;8.15;;;;;;;;;;5077982;28;20112;-96
2021/09/27 03:30:17;;;;;;;11.23;7.88;;;;;;;;;;5077812;28;20314;-95
2021/09/27 03:32:53;;;;;;;18.40;8.20;;;;;;;;;;5077907;28;20036;-94
2021/09/27 03:35:19;;;;;;;11.32;8.15;;;;;;;;;;5077014;28;20020;-91
2021/09/27 03:38:07;;;;;;;11.35;8.38;;;;;;;;;;5078181;28;20095;-91
2021/09/27 03:41:02;;;;;;;11.65;8.23;;;;;;;;;;5076864;28;20115;-92
2021/09/27 03:43:37;;;;;;;10.80;7.60;;;;;;;;;;5059758;28;20039;-88
2021/09/27 03:46:06;;;;;;;13.23;7.60;;;;;;;;;;5062051;28;20119;-88
2021/09/27 03:48:36;;;;;;;11.50;7.55;;;;;;;;;;5059344;28;20036;-89
2021/09/27 03:51:08;;;;;;;13.52;8.77;;;;;;;;;;5076088;28;20028;-90
2021/09/27 03:54:00;;;;;;;11.77;8.38;;;;;;;;;;5076086;28;20094;-89
2021/09/27 03:56:37;;;;;;;15.27;9.07;;;;;;;;;;5015726;28;20436;-91
2021/09/27 03:59:09;;;;;;;17.70;8.60;;;;;;;;;;5016340;28;20026;-92
2021/09/27 04:01:51;;;;;;;14.45;8.73;;;;;;;;;;5016457;28;20328;-92
2021/09/27 04:04:20;;;;;;;17.80;8.80;;;;;;;;;;5016399;28;20313;-92
2021/09/27 04:06:51;;;;;;;17.20;8.90;;;;;;;;;;5016169;28;20436;-92
2021/09/27 04:09:43;;;;;;;13.15;9.15;;;;;;;;;;5016130;28;20040;-92
2021/09/27 04:12:18;;;;;;;14.43;9.40;;;;;;;;;;5016135;28;20041;-92
2021/09/27 04:14:44;;;;;;;18.23;9.52;;;;;;;;;;5016161;28;20447;-93
2021/09/27 04:17:36;;;;;;;14.98;9.52;;;;;;;;;;5015765;28;20030;-92
2021/09/27 04:20:02;;;;;;;;;;;;;;;;;;5028219;28;20038;-90
2021/09/27 04:22:34;;;;;;;17.55;10.60;;;;;;;;;;5035802;28;19943;-91
2021/09/27 04:25:03;;;;;;;18.30;10.07;;;;;;;;;;5019465;28;20442;-90
2021/09/27 04:27:47;;;;;;;15.20;10.88;;;;;;;;;;5035658;28;20076;-90
2021/09/27 04:30:18;;;;;;;21.52;11.93;;;;;;;;;;5019267;28;20068;-90
2021/09/27 04:32:48;;;;;;;23.95;11.93;;;;;;;;;;5034767;28;20045;-91
2021/09/27 04:35:17;;;;;;;25.60;12.85;;;;;;;;;;5077510;28;20056;-90
2021/09/27 04:37:44;;;;;;;22.00;12.20;;;;;;;;;;5078001;28;20025;-91
2021/09/27 04:40:11;;;;;;;25.88;12.50;;;;;;;;;;5080063;28;20406;-90
2021/09/27 04:42:57;;;;;;;23.17;12.43;;;;;;;;;;5080123;28;20051;-91
2021/09/27 04:45:32;;;;;;;20.92;11.25;;;;;;;;;;5080036;28;20024;-90
2021/09/27 04:48:07;;;;;;;16.00;10.60;;;;;;;;;;5080040;28;20066;-91
2021/09/27 04:50:39;;;;;;;20.15;11.23;;;;;;;;;;5080911;28;20059;-92
2021/09/27 04:53:24;;;;;;;17.67;10.68;;;;;;;;;;5080931;28;20028;-91
2021/09/27 04:55:58;;;;;;;18.73;10.90;;;;;;;;;;5079477;28;20431;-94
2021/09/27 04:58:24;;;;;;;15.75;10.13;;;;;;;;;;5080256;28;20111;-94
2021/09/27 05:01:16;;;;;;;22.55;11.85;;;;;;;;;;5081923;28;20047;-90
2021/09/27 05:03:55;;;;;;;20.20;11.07;;;;;;;;;;5093970;28;20040;-89
2021/09/27 05:06:21;;;;;;;20.65;13.52;;;;;;;;;;5100537;28;20355;-87
2021/09/27 05:08:50;;;;;;;20.17;12.85;;;;;;;;;;5080826;28;20464;-86
2021/09/27 05:11:29;;;;;;;21.85;11.77;;;;;;;;;;5079411;28;20101;-86
2021/09/27 05:14:14;;;;;;;23.88;13.50;;;;;;;;;;5079545;28;20032;-87
2021/09/27 05:16:58;;;;;;;20.02;11.18;;;;;;;;;;5080479;28;20383;-86
2021/09/27 05:19:24;;;;;;;19.38;10.15;;;;;;;;;;5080279;28;20025;-86
2021/09/27 05:21:50;;;;;;;19.00;12.10;;;;;;;;;;5079151;28;20399;-86
2021/09/27 05:24:35;;;;;;;24.58;13.88;;;;;;;;;;5080098;28;20017;-86
2021/09/27 05:27:21;;;;;;;20.48;10.30;;;;;;;;;;5080378;28;20021;-87
2021/09/27 05:29:53;;;;;;;20.08;10.88;;;;;;;;;;5080179;28;20035;-87
2021/09/27 05:32:38;;;;;;;31.20;18.45;;;;;;;;;;5078897;28;20024;-86
2021/09/27 05:35:23;;;;;;;20.42;11.60;;;;;;;;;;5078967;28;20039;-86
2021/09/27 05:37:58;;;;;;;18.90;10.57;;;;;;;;;;5080169;28;20051;-86
2021/09/27 05:40:32;;;;;;;22.40;11.90;;;;;;;;;;5079787;28;20082;-86
2021/09/27 05:43:04;;;;;;;19.10;10.25;;;;;;;;;;5079901;28;20029;-86
2021/09/27 05:45:36;;;;;;;21.13;10.32;;;;;;;;;;5079972;28;20017;-85
2021/09/27 05:48:10;;;;;;;20.15;11.30;;;;;;;;;;5079665;28;20032;-87
2021/09/27 05:50:42;;;;;;;17.55;10.00;;;;;;;;;;5078327;28;20028;-86
2021/09/27 05:53:08;;;;;;;18.38;10.05;;;;;;;;;;5079728;28;20020;-87
2021/09/27 05:56:13;;;;;;;22.45;10.88;;;;;;;;;;5065999;28;20160;-86
2021/09/27 05:58:57;;;;;;;18.92;10.32;;;;;;;;;;5079247;28;20043;-86
2021/09/27 06:01:35;;;;;;;18.75;10.07;;;;;;;;;;5078703;28;20031;-86
2021/09/27 06:04:01;;;;;;;18.88;10.32;;;;;;;;;;5059524;28;20025;-86
2021/09/27 06:06:35;;;;;;;21.65;11.85;;;;;;;;;;5058525;28;20119;-86
2021/09/27 06:09:13;;;;;;;20.50;11.32;;;;;;;;;;5059129;28;20082;-82
2021/09/27 06:11:45;;;;;;;22.60;12.65;;;;;;;;;;5059069;28;20025;-83
2021/09/27 06:14:14;;;;;;;24.20;13.38;;;;;;;;;;5058919;28;20025;-83
2021/09/27 06:16:59;;;;;;;23.38;12.07;;;;;;;;;;5058767;28;20037;-83
2021/09/27 06:19:31;;;;;;;27.38;11.73;;;;;;;;;;5057720;28;20021;-83
2021/09/27 06:22:17;;;;;;;22.65;11.63;;;;;;;;;;5058949;28;20151;-83
2021/09/27 06:24:52;;;;;;;22.75;12.45;;;;;;;;;;5057355;28;20048;-83
2021/09/27 06:27:28;;;;;;;17.80;11.52;;;;;;;;;;5058832;28;20028;-83
2021/09/27 06:30:09;;;;;;;18.20;12.32;;;;;;;;;;5057550;28;20021;-83
2021/09/27 06:32:41;;;;;;;21.98;12.13;;;;;;;;;;5057527;28;20033;-83
2021/09/27 06:35:09;;;;;;;19.13;12.18;;;;;;;;;;5057605;28;20036;-83
2021/09/27 06:37:35;;;;;;;23.90;12.48;;;;;;;;;;5058505;28;20025;-83
2021/09/27 06:40:03;;;;;;;22.67;12.70;;;;;;;;;;5057441;28;20300;-83
2021/09/27 06:42:29;;;;;;;24.73;13.15;;;;;;;;;;5057257;28;20021;-83
2021/09/27 06:44:55;;;;;;;30.10;12.82;;;;;;;;;;5058426;28;20021;-82
2021/09/27 06:47:22;;;;;;;30.60;14.07;;;;;;;;;;5062901;28;20029;-82
2021/09/27 06:49:48;;;;;;;27.80;16.42;;;;;;;;;;5078046;28;20403;-83
2021/09/27 06:52:14;;;;;;;18.70;11.55;;;;;;;;;;5077693;28;20025;-82
2021/09/27 06:54:40;;;;;;;26.48;15.20;;;;;;;;;;5075451;28;20436;-82
2021/09/27 06:57:06;;;;;;;22.45;13.18;;;;;;;;;;5077818;28;20032;-82
2021/09/27 06:59:32;;;;;;;20.48;13.38;;;;;;;;;;5077960;28;20066;-83
2021/09/27 07:01:58;;;;;;;27.63;15.90;;;;;;;;;;5077503;28;20099;-84
2021/09/27 07:04:24;;;;;;;21.02;13.65;;;;;;;;;;5077888;28;20028;-83
2021/09/27 07:06:51;;;;;;;19.65;13.48;;;;;;;;;;5077979;28;20028;-83
2021/09/27 07:09:17;;;;;;;22.50;12.90;;;;;;;;;;5078113;28;20055;-82
2021/09/27 07:11:44;;;;;;;23.40;15.35;;;;;;;;;;5078013;28;20036;-82
2021/09/27 07:14:11;;;;;;;21.77;13.10;;;;;;;;;;5077874;28;20031;-83
2021/09/27 07:16:37;;;;;;;26.67;14.45;;;;;;;;;;5076592;28;20372;-83
2021/09/27 07:19:07;;;;;;;35.33;19.92;;;;;;;;;;5077785;28;20021;-83
2021/09/27 07:21:34;;;;;;;24.88;17.08;;;;;;;;;;5077455;28;20036;-84
2021/09/27 07:24:00;;;;;;;20.50;13.82;;;;;;;;;;5077625;28;20374;-83
2021/09/27 07:26:27;;;;;;;20.52;13.20;;;;;;;;;;5077683;28;20425;-82
2021/09/27 07:28:56;;;;;;;25.60;13.65;;;;;;;;;;5076389;28;20040;-83
2021/09/27 07:31:24;;;;;;;30.92;14.05;;;;;;;;;;5077275;28;20067;-83
2021/09/27 07:33:50;;;;;;;25.88;14.88;;;;;;;;;;5077431;28;20031;-83
2021/09/27 07:36:16;;;;;;;21.02;14.32;;;;;;;;;;5076320;28;20429;-82
2021/09/27 07:38:42;;;;;;;23.35;15.02;;;;;;;;;;5077244;28;20062;-82
2021/09/27 07:41:09;;;;;;;25.10;15.25;;;;;;;;;;5077440;28;20316;-82
2021/09/27 07:43:35;;;;;;;27.25;14.45;;;;;;;;;;5077398;28;20024;-82
2021/09/27 07:46:01;;;;;;;26.30;15.20;;;;;;;;;;5077279;28;20028;-82
2021/09/27 07:48:28;;;;;;;29.48;15.18;;;;;;;;;;5075816;28;20036;-81
2021/09/27 07:50:55;;;;;;;29.02;15.73;;;;;;;;;;5077177;28;20027;-82
2021/09/27 07:53:22;;;;;;;24.77;15.95;;;;;;;;;;5077263;28;20040;-82
2021/09/27 07:55:48;;;;;;;30.70;15.80;;;;;;;;;;5075881;28;20040;-82
2021/09/27 07:58:17;;;;;;;33.10;15.45;;;;;;;;;;5076932;28;20105;-82
2021/09/27 08:00:43;;;;;;;33.97;17.17;;;;;;;;;;5077182;28;20086;-82
2021/09/27 08:03:09;;;;;;;27.05;15.63;;;;;;;;;;5077015;28;20410;-81
2021/09/27 08:05:38;;;;;;;25.55;15.00;;;;;;;;;;5076628;28;20435;-82
2021/09/27 08:08:04;;;;;;;28.30;15.13;;;;;;;;;;5075754;28;20056;-81
2021/09/27 08:10:31;;;;;;;25.63;14.68;;;;;;;;;;5075717;28;20055;-81
2021/09/27 08:12:57;;;;;;;25.40;14.38;;;;;;;;;;5079028;28;20033;-81
2021/09/27 08:15:25;;;;;;;21.38;14.18;;;;;;;;;;5078918;28;20074;-82
2021/09/27 08:17:52;;;;;;;21.67;14.25;;;;;;;;;;5080155;28;20306;-82
2021/09/27 08:20:24;;;;;;;30.90;14.00;;;;;;;;;;5078856;28;20028;-81
2021/09/27 08:22:52;;;;;;;21.50;13.30;;;;;;;;;;5079996;28;20417;-82
2021/09/27 08:25:18;;;;;;;24.58;13.55;;;;;;;;;;5079691;28;20041;-81
2021/09/27 08:27:47;;;;;;;21.73;12.32;;;;;;;;;;5080354;28;20028;-83
2021/09/27 08:30:16;;;;;;;22.45;11.70;;;;;;;;;;5080572;28;20402;-82
2021/09/27 08:32:42;;;;;;;16.63;10.90;;;;;;;;;;5079098;28;20119;-82
2021/09/27 08:35:09;;;;;;;19.15;11.20;;;;;;;;;;5080723;28;20421;-81
2021/09/27 08:37:35;;;;;;;21.75;10.80;;;;;;;;;;5080752;28;20410;-82
2021/09/27 08:40:02;;;;;;;16.80;10.10;;;;;;;;;;5080256;28;20024;-82
2021/09/27 08:42:32;;;;;;;17.67;10.93;;;;;;;;;;5079494;28;20406;-82
2021/09/27 08:45:18;;;;;;;21.08;10.43;;;;;;;;;;5080684;28;20025;-82
2021/09/27 08:47:56;;;;;;;15.68;9.73;;;;;;;;;;5080146;28;20032;-82
2021/09/27 08:50:34;;;;;;;15.52;9.98;;;;;;;;;;5080504;28;20024;-82
2021/09/27 08:53:05;;;;;;;15.18;9.40;;;;;;;;;;5079233;28;20052;-83
2021/09/27 08:55:32;;;;;;;15.77;9.73;;;;;;;;;;5080362;28;20123;-83
2021/09/27 08:58:04;;;;;;;18.13;9.25;;;;;;;;;;5079654;28;20052;-82
2021/09/27 09:00:41;;;;;;;24.42;9.90;;;;;;;;;;5079031;28;20081;-83
2021/09/27 09:03:07;;;;;;;18.88;10.02;;;;;;;;;;5080301;28;20401;-82
2021/09/27 09:05:40;;;;;;;17.55;9.20;;;;;;;;;;5080120;28;20116;-83
2021/09/27 10:29:48;;;;;;;10.77;6.97;;;;;;;;;;5094946;27;20700;-81
2021/09/27 10:32:41;;;;;;;14.88;7.00;;;;;;;;;;5093873;28;20064;-81
2021/09/27 10:35:27;;;;;;;11.43;6.82;;;;;;;;;;5093641;28;20473;-81
2021/09/27 10:38:04;;;;;;;12.18;6.70;;;;;;;;;;5110397;28;20398;-81
2021/09/27 10:40:31;;;;;;;12.15;6.70;;;;;;;;;;5094619;28;20032;-83
2021/09/27 10:42:58;;;;;;;10.73;6.70;;;;;;;;;;5094846;28;20066;-83
2021/09/27 10:45:25;;;;;;;11.60;7.18;;;;;;;;;;5094414;28;20052;-82
2021/09/27 10:47:56;;;;;;;13.38;6.47;;;;;;;;;;5094768;28;20028;-83
2021/09/27 10:50:34;;;;;;;13.07;7.20;;;;;;;;;;5094837;28;20047;-82
2021/09/27 10:53:06;;;;;;;13.20;6.90;;;;;;;;;;5110518;28;20310;-83
2021/09/27 10:55:44;;;;;;;15.90;6.80;;;;;;;;;;5094386;28;20287;-83
2021/09/27 10:58:11;;;;;;;14.40;6.60;;;;;;;;;;5094464;28;20029;-82
2021/09/27 11:00:51;;;;;;;16.00;6.90;;;;;;;;;;5110167;28;20028;-82
2021/09/27 11:03:28;;;;;;;10.60;7.13;;;;;;;;;;5094416;28;20024;-83
2021/09/27 11:06:14;;;;;;;17.95;6.88;;;;;;;;;;5094276;28;20021;-82
2021/09/27 11:08:50;;;;;;;13.27;6.50;;;;;;;;;;5072277;28;20039;-83
2021/09/27 11:11:40;;;;;;;10.55;7.15;;;;;;;;;;5054966;28;20361;-83
2021/09/27 11:14:17;;;;;;;12.85;6.85;;;;;;;;;;5072161;28;20119;-83
2021/09/27 11:16:46;;;;;;;14.75;7.88;;;;;;;;;;5072058;28;20021;-83
2021/09/27 11:19:30;;;;;;;12.05;6.88;;;;;;;;;;5071882;28;20235;-83
2021/09/27 11:21:56;;;;;;;11.45;7.00;;;;;;;;;;5071919;28;20112;-83
2021/09/27 11:24:44;;;;;;;11.00;7.18;;;;;;;;;;5055105;28;20025;-83
2021/09/27 11:27:16;;;;;;;16.42;6.75;;;;;;;;;;5078998;28;20476;-83
2021/09/27 11:29:54;;;;;;;9.48;6.50;;;;;;;;;;5092514;28;20056;-83
2021/09/27 11:32:41;;;;;;;19.17;6.90;;;;;;;;;;5092081;28;20033;-82
2021/09/27 11:35:10;;;;;;;15.85;6.43;;;;;;;;;;5074800;28;20062;-82
2021/09/27 11:37:57;;;;;;;12.18;7.10;;;;;;;;;;5091888;28;20063;-82
2021/09/27 11:40:23;;;;;;;16.88;7.05;;;;;;;;;;5021981;28;20046;-82
2021/09/27 11:42:56;;;;;;;13.38;6.45;;;;;;;;;;5018331;28;20130;-82
2021/09/27 11:45:28;;;;;;;12.32;6.90;;;;;;;;;;5018348;28;20412;-82
2021/09/27 11:47:57;;;;;;;13.00;6.45;;;;;;;;;;5002004;28;20030;-82
2021/09/27 11:50:31;;;;;;;13.82;8.68;;;;;;;;;;5018296;28;20049;-83
2021/09/27 11:53:06;;;;;;;11.75;8.05;;;;;;;;;;5018398;28;20030;-82
2021/09/27 11:55:34;;;;;;;15.13;6.43;;;;;;;;;;5001716;28;20112;-82
2021/09/27 11:58:23;;;;;;;16.08;7.43;;;;;;;;;;5017907;28;20124;-82
2021/09/27 12:00:59;;;;;;;14.82;9.35;;;;;;;;;;5018109;28;20061;-82
2021/09/27 12:03:33;;;;;;;14.80;10.13;;;;;;;;;;5017936;28;20034;-82
2021/09/27 12:06:28;;;;;;;18.63;11.50;;;;;;;;;;5018011;28;20149;-82
2021/09/27 12:09:07;;;;;;;15.63;8.60;;;;;;;;;;4997992;28;20040;-83
2021/09/27 12:11:45;;;;;;;19.40;9.25;;;;;;;;;;4998165;28;20063;-83
2021/09/27 12:14:17;;;;;;;17.08;9.82;;;;;;;;;;4998208;28;20062;-82
2021/09/27 12:16:48;;;;;;;12.13;7.72;;;;;;;;;;5008395;28;20032;-83
2021/09/27 12:19:24;;;;;;;15.70;6.90;;;;;;;;;;5040826;28;20033;-82
2021/09/27 12:21:55;;;;;;;20.17;9.30;;;;;;;;;;5057221;28;20422;-82
2021/09/27 12:24:25;;;;;;;16.48;10.00;;;;;;;;;;5040540;28;20075;-82
2021/09/27 12:26:51;;;;;;;12.50;6.65;;;;;;;;;;5057318;28;20044;-82
2021/09/27 12:29:19;;;;;;;13.90;6.68;;;;;;;;;;5056952;28;20336;-82
2021/09/27 12:31:45;;;;;;;11.85;6.25;;;;;;;;;;5057339;28;20545;-82
2021/09/27 12:34:16;;;;;;;19.88;7.47;;;;;;;;;;5057122;28;20029;-82
2021/09/27 12:36:44;;;;;;;22.15;6.97;;;;;;;;;;5057313;28;20036;-82
2021/09/27 12:39:10;;;;;;;14.25;7.03;;;;;;;;;;5040401;28;20124;-82
2021/09/27 12:41:37;;;;;;;12.57;7.03;;;;;;;;;;5039916;28;20466;-82
2021/09/27 12:44:04;;;;;;;13.25;6.88;;;;;;;;;;5056906;28;20415;-82
2021/09/27 12:46:30;;;;;;;15.13;7.20;;;;;;;;;;5077939;28;20039;-82
2021/09/27 12:48:58;;;;;;;13.43;6.53;;;;;;;;;;5078787;28;20029;-82
2021/09/27 12:51:31;;;;;;;17.10;6.82;;;;;;;;;;5077536;28;20028;-82
2021/09/27 12:54:05;;;;;;;12.88;6.32;;;;;;;;;;5078916;28;20063;-82
2021/09/27 12:56:34;;;;;;;19.00;7.72;;;;;;;;;;5078562;28;20032;-82
2021/09/27 12:59:03;;;;;;;15.98;7.13;;;;;;;;;;5077449;28;20036;-82
2021/09/27 13:01:31;;;;;;;12.75;6.50;;;;;;;;;;5077325;28;20043;-82
2021/09/27 13:04:00;;;;;;;13.88;6.72;;;;;;;;;;5077259;28;20063;-83
2021/09/27 13:06:27;;;;;;;11.85;6.38;;;;;;;;;;5078452;28;20050;-82
2021/09/27 13:09:20;;;;;;;16.73;6.63;;;;;;;;;;5077257;28;20024;-83
2021/09/27 13:11:51;;;;;;;15.52;6.75;;;;;;;;;;5078187;28;20031;-83
2021/09/27 13:14:27;;;;;;;16.50;6.93;;;;;;;;;;5078386;28;20083;-82
2021/09/27 13:16:56;;;;;;;16.88;7.78;;;;;;;;;;5078460;28;20096;-83
2021/09/27 13:19:37;;;;;;;13.90;7.15;;;;;;;;;;5078217;28;20025;-83
2021/09/27 13:22:05;;;;;;;17.70;7.60;;;;;;;;;;5077262;28;20035;-83
2021/09/27 13:24:32;;;;;;;15.32;6.43;;;;;;;;;;5078219;28;20028;-82
2021/09/27 13:27:00;;;;;;;12.60;7.10;;;;;;;;;;5077799;28;20021;-82
2021/09/27 13:29:45;;;;;;;13.55;7.07;;;;;;;;;;5077568;28;20048;-82
2021/09/27 13:32:11;;;;;;;16.52;6.72;;;;;;;;;;5077153;28;20036;-82
2021/09/27 13:34:40;;;;;;;15.90;6.80;;;;;;;;;;5077630;28;20016;-81
2021/09/27 13:37:18;;;;;;;11.15;6.65;;;;;;;;;;5076629;28;20024;-82
2021/09/27 13:39:45;;;;;;;18.90;7.70;;;;;;;;;;5076625;28;20045;-82
2021/09/27 13:42:14;;;;;;;11.85;6.60;;;;;;;;;;5077658;28;20040;-82
2021/09/27 13:44:43;;;;;;;11.45;6.82;;;;;;;;;;5076631;28;20192;-82
2021/09/27 13:47:10;;;;;;;16.73;7.50;;;;;;;;;;5077806;28;20103;-83
2021/09/27 13:49:37;;;;;;;16.73;9.27;;;;;;;;;;5076513;28;20066;-83
2021/09/27 13:52:05;;;;;;;16.30;7.75;;;;;;;;;;5077458;28;20017;-82
2021/09/27 13:54:31;;;;;;;18.00;8.68;;;;;;;;;;5076862;28;20035;-82
2021/09/27 13:56:58;;;;;;;18.15;9.07;;;;;;;;;;5076094;28;20420;-81
2021/09/27 13:59:24;;;;;;;20.48;9.65;;;;;;;;;;5077501;28;20497;-82
2021/09/27 14:01:50;;;;;;;14.95;7.95;;;;;;;;;;5077345;28;20024;-82
2021/09/27 14:04:18;;;;;;;13.35;8.35;;;;;;;;;;5075741;28;20032;-82
2021/09/27 14:06:44;;;;;;;17.02;7.60;;;;;;;;;;5075936;28;20440;-82
2021/09/27 14:09:10;;;;;;;20.25;7.38;;;;;;;;;;5077120;28;20062;-82
2021/09/27 14:11:36;;;;;;;19.75;7.63;;;;;;;;;;5077493;28;20040;-82
2021/09/27 14:14:04;;;;;;;12.55;6.95;;;;;;;;;;5077118;28;20048;-83
2021/09/27 14:16:30;;;;;;;22.60;8.48;;;;;;;;;;5077321;28;20024;-83
2021/09/27 14:18:56;;;;;;;18.75;7.78;;;;;;;;;;5077397;28;20066;-82
2021/09/27 14:21:23;;;;;;;13.73;7.70;;;;;;;;;;5076221;28;20025;-83
2021/09/27 14:23:50;;;;;;;13.68;6.93;;;;;;;;;;5076127;28;20510;-83
2021/09/27 14:26:16;;;;;;;22.15;7.38;;;;;;;;;;5076172;28;20111;-83
2021/09/27 14:28:43;;;;;;;14.80;8.00;;;;;;;;;;5075686;28;20037;-82
2021/09/27 14:31:10;;;;;;;20.77;7.85;;;;;;;;;;5076258;28;20037;-83
2021/09/27 14:33:37;;;;;;;14.93;7.53;;;;;;;;;;5077205;28;20024;-82
2021/09/27 14:36:03;;;;;;;20.13;7.65;;;;;;;;;;5076988;28;20027;-83
2021/09/27 14:38:29;;;;;;;15.93;8.20;;;;;;;;;;5077028;28;20279;-84
2021/09/27 14:40:56;;;;;;;13.70;6.50;;;;;;;;;;5077345;28;20032;-83
2021/09/27 14:43:22;;;;;;;17.55;7.22;;;;;;;;;;5077248;28;20353;-82
2021/09/27 14:45:48;;;;;;;14.15;7.50;;;;;;;;;;5077129;28;20038;-83
2021/09/27 14:48:14;;;;;;;17.27;7.75;;;;;;;;;;5075914;28;20036;-82
2021/09/27 14:50:43;;;;;;;26.02;8.13;;;;;;;;;;5076854;28;20505;-82
2021/09/27 14:53:10;;;;;;;13.82;7.30;;;;;;;;;;5075840;28;20032;-82
2021/09/27 14:55:37;;;;;;;17.48;7.57;;;;;;;;;;5075683;28;20035;-83
2021/09/27 14:58:08;;;;;;;16.90;7.97;;;;;;;;;;5076906;28;20028;-83
2021/09/27 15:00:34;;;;;;;21.10;8.67;;;;;;;;;;5076847;28;20066;-83
2021/09/27 15:03:00;;;;;;;15.93;6.97;;;;;;;;;;5075855;28;20037;-83
2021/09/27 15:05:26;;;;;;;20.90;7.97;;;;;;;;;;5076940;28;20465;-83
2021/09/27 15:07:53;;;;;;;20.02;7.68;;;;;;;;;;5075711;28;20020;-83
2021/09/27 15:10:23;;;;;;;16.20;7.60;;;;;;;;;;5076748;28;20025;-83
2021/09/27 15:12:49;;;;;;;18.02;7.60;;;;;;;;;;5077122;28;20028;-83
2021/09/27 15:15:20;;;;;;;17.63;7.70;;;;;;;;;;5078358;28;20355;-83
2021/09/27 15:17:47;;;;;;;16.08;8.05;;;;;;;;;;5079250;28;20028;-83
2021/09/27 15:20:14;;;;;;;24.90;8.93;;;;;;;;;;5080391;28;20074;-83
2021/09/27 15:22:41;;;;;;;19.52;7.85;;;;;;;;;;5080628;28;20025;-83
2021/09/27 15:25:08;;;;;;;19.17;8.15;;;;;;;;;;5080043;28;20027;-82
2021/09/27 15:27:34;;;;;;;14.90;7.80;;;;;;;;;;5080076;28;20036;-82
2021/09/27 15:30:01;;;;;;;17.73;7.53;;;;;;;;;;5080614;28;20032;-83
2021/09/27 15:32:27;;;;;;;15.02;8.13;;;;;;;;;;5079321;28;20016;-82
2021/09/27 15:34:53;;;;;;;17.92;9.65;;;;;;;;;;5078995;28;20040;-83
2021/09/27 15:37:21;;;;;;;24.40;10.85;;;;;;;;;;5080198;28;20350;-81
2021/09/27 15:39:48;;;;;;;27.00;9.52;;;;;;;;;;5078479;28;20040;-82
2021/09/27 15:42:15;;;;;;;18.95;9.50;;;;;;;;;;5077670;28;20039;-82
2021/09/27 15:44:41;;;;;;;19.48;9.20;;;;;;;;;;5080060;28;20047;-82
2021/09/27 15:47:09;;;;;;;24.85;9.93;;;;;;;;;;5079970;28;20315;-83
2021/09/27 15:49:36;;;;;;;27.85;9.88;;;;;;;;;;5079840;28;20021;-82
2021/09/27 15:52:03;;;;;;;24.88;10.02;;;;;;;;;;5079911;28;20019;-82
2021/09/27 15:54:30;;;;;;;25.55;10.02;;;;;;;;;;5078841;28;20024;-84
2021/09/27 15:56:56;;;;;;;41.15;11.40;;;;;;;;;;5080000;28;20414;-84
2021/09/27 15:59:23;;;;;;;33.03;11.52;;;;;;;;;;5080096;28;20099;-85
2021/09/27 16:01:52;;;;;;;42.70;11.50;;;;;;;;;;5079795;28;20020;-83
2021/09/27 16:04:19;;;;;;;44.97;12.07;;;;;;;;;;5079842;28;20055;-84
2021/09/27 16:06:45;;;;;;;67.63;38.10;;;;;;;;;;5079636;28;20021;-84
2021/09/27 16:09:11;;;;;;;262.38;194.40;;;;;;;;;;5079538;28;20032;-83